首页
METAR-TAF:

METAR-TAF

机场 :

塔斯卡卢萨, 阿拉巴马州, 美国

纬度: 33-12-43N, 经度: 087-36-57W, 海拔: 52米

当前天气观测

该预报发布于39分钟前的23:14 UTC
风速10节,风向
温度 21°C
湿度 73%
气压 1013 hPa
能見度: 16.1公里
散云层高于2800英尺
多云层高于6000英尺

METAR: KTCL 092314Z 18010KT 10SM SCT028 BKN060 21/16 A2990 RMK AO2 T02060161

时间: 17:53 (23:53 UTC)

预报

该预报发布于14分钟前的23:39 UTC
预报有效从10日的 00点(UTC)到 10日的 24点(UTC)
风速6节,风向
能見度: 10公里
散云层高于2500英尺
多云层高于6000英尺
从 10日的 0130点(UTC)
风速8节,风向
能見度: 10公里
多云层高于2500英尺
阴天层高于5000英尺
从 10日的 0300点(UTC)
风速8节,风向
能見度: 10公里
阴天层高于1500英尺
附近有阵雨
从 10日的 0600点(UTC)
风速8节,风向
能見度: 9.7公里
阴天层高于900英尺
小雨, 轻雾
从 10日的 0800点(UTC)
风速8节,风向
能見度: 6.4公里
阴天层高于700英尺
小雨, 轻雾
从 10日的 1400点(UTC)
风速9节,风向,有时为19节阵风
能見度: 6.4公里
阴天层高于700英尺
小雨, 轻雾

TAF: KTCL 092339Z 1000/1024 18006KT P6SM SCT025 BKN060 FM100130 17008KT P6SM BKN025 OVC050 FM100300 19008KT P6SM VCSH OVC015 FM100600 19008KT 6SM -RA BR OVC009 FM100800 19008KT 4SM -RA BR OVC007 FM101400 35009G19KT 4SM -RA BR OVC007

超过4000个机场的气象观测和天气预报(METAR&TAF报告)。

可查询的气象台以黄色和红色小点在地图上表示。

将鼠标移到小点上方,可查看气象台名称。

然后点击查看天气观测和预报。

如需切换地图:点击带黑十字的绿色按钮放大地图;点击带横线的绿色按钮缩小地图;或者点击绿色箭头查看邻近地区的地图。


METAR-TAF: